sensor_id;sensor_type;location;lat;lon;timestamp;pressure;altitude;pressure_sealevel;temperature;humidity
54876;BME280;40764;48.472;8.166;2023-03-31T00:00:44;97666.75;;;9.78;100.00
54876;BME280;40764;48.472;8.166;2023-03-31T00:06:45;97649.84;;;9.49;100.00
54876;BME280;40764;48.472;8.166;2023-03-31T00:12:57;97619.53;;;9.50;100.00
54876;BME280;40764;48.472;8.166;2023-03-31T00:18:57;97623.88;;;9.51;100.00
54876;BME280;40764;48.472;8.166;2023-03-31T00:25:10;97603.97;;;9.51;100.00
54876;BME280;40764;48.472;8.166;2023-03-31T00:31:11;97594.97;;;9.50;100.00
54876;BME280;40764;48.472;8.166;2023-03-31T00:37:11;97600.06;;;9.57;100.00
54876;BME280;40764;48.472;8.166;2023-03-31T00:43:36;97596.09;;;9.63;100.00
54876;BME280;40764;48.472;8.166;2023-03-31T00:49:46;97613.78;;;9.79;100.00
54876;BME280;40764;48.472;8.166;2023-03-31T00:55:51;97630.28;;;9.88;100.00
54876;BME280;40764;48.472;8.166;2023-03-31T01:01:52;97669.28;;;10.02;100.00
54876;BME280;40764;48.472;8.166;2023-03-31T01:07:53;97691.66;;;10.68;96.49
54876;BME280;40764;48.472;8.166;2023-03-31T01:13:55;97676.41;;;11.11;93.77
54876;BME280;40764;48.472;8.166;2023-03-31T01:45:13;97583.09;;;10.10;100.00
54876;BME280;40764;48.472;8.166;2023-03-31T01:51:19;97523.19;;;9.91;100.00
54876;BME280;40764;48.472;8.166;2023-03-31T01:57:36;97494.97;;;9.96;100.00
54876;BME280;40764;48.472;8.166;2023-03-31T02:03:44;97500.59;;;9.99;100.00
54876;BME280;40764;48.472;8.166;2023-03-31T02:09:49;97479.00;;;9.89;100.00
54876;BME280;40764;48.472;8.166;2023-03-31T02:15:56;97435.94;;;9.86;100.00
54876;BME280;40764;48.472;8.166;2023-03-31T02:22:00;97431.97;;;9.92;100.00
54876;BME280;40764;48.472;8.166;2023-03-31T02:28:08;97391.88;;;9.79;100.00
54876;BME280;40764;48.472;8.166;2023-03-31T02:34:10;97379.28;;;9.69;100.00
54876;BME280;40764;48.472;8.166;2023-03-31T02:40:16;97357.16;;;9.71;100.00
54876;BME280;40764;48.472;8.166;2023-03-31T02:46:16;97336.25;;;9.66;100.00
54876;BME280;40764;48.472;8.166;2023-03-31T02:52:22;97314.25;;;9.62;100.00
54876;BME280;40764;48.472;8.166;2023-03-31T02:58:41;97293.16;;;9.54;100.00
54876;BME280;40764;48.472;8.166;2023-03-31T03:11:07;97246.22;;;9.44;100.00
54876;BME280;40764;48.472;8.166;2023-03-31T03:17:17;97217.50;;;9.46;100.00
54876;BME280;40764;48.472;8.166;2023-03-31T03:23:20;97182.06;;;9.24;100.00
54876;BME280;40764;48.472;8.166;2023-03-31T03:29:22;97163.19;;;9.27;100.00
54876;BME280;40764;48.472;8.166;2023-03-31T03:35:22;97127.94;;;9.09;100.00
54876;BME280;40764;48.472;8.166;2023-03-31T03:41:23;97107.91;;;9.13;100.00
54876;BME280;40764;48.472;8.166;2023-03-31T03:47:23;97110.63;;;9.44;100.00
54876;BME280;40764;48.472;8.166;2023-03-31T03:53:23;97096.66;;;9.37;100.00
54876;BME280;40764;48.472;8.166;2023-03-31T03:59:24;97106.59;;;9.33;100.00
54876;BME280;40764;48.472;8.166;2023-03-31T04:05:24;97101.47;;;9.40;100.00
54876;BME280;40764;48.472;8.166;2023-03-31T04:11:25;97124.25;;;9.36;100.00
54876;BME280;40764;48.472;8.166;2023-03-31T04:17:25;97133.56;;;9.43;100.00
54876;BME280;40764;48.472;8.166;2023-03-31T04:23:33;97122.66;;;9.43;100.00
54876;BME280;40764;48.472;8.166;2023-03-31T04:29:34;97079.94;;;9.30;100.00
54876;BME280;40764;48.472;8.166;2023-03-31T04:35:36;97080.38;;;9.54;100.00
54876;BME280;40764;48.472;8.166;2023-03-31T04:41:48;97081.88;;;9.29;100.00
54876;BME280;40764;48.472;8.166;2023-03-31T04:47:53;97065.19;;;9.31;100.00
54876;BME280;40764;48.472;8.166;2023-03-31T04:53:53;97083.09;;;9.54;100.00
54876;BME280;40764;48.472;8.166;2023-03-31T04:59:54;97100.63;;;9.62;100.00
54876;BME280;40764;48.472;8.166;2023-03-31T05:05:54;97091.78;;;9.56;100.00
54876;BME280;40764;48.472;8.166;2023-03-31T05:11:55;97081.19;;;9.63;100.00
54876;BME280;40764;48.472;8.166;2023-03-31T05:17:56;97089.56;;;9.76;100.00
54876;BME280;40764;48.472;8.166;2023-03-31T05:23:57;97075.59;;;9.69;100.00
54876;BME280;40764;48.472;8.166;2023-03-31T05:29:57;97056.34;;;9.74;100.00
54876;BME280;40764;48.472;8.166;2023-03-31T05:35:58;97036.91;;;9.75;100.00
54876;BME280;40764;48.472;8.166;2023-03-31T05:41:59;97035.31;;;9.74;100.00
54876;BME280;40764;48.472;8.166;2023-03-31T05:47:59;97034.50;;;9.82;100.00
54876;BME280;40764;48.472;8.166;2023-03-31T05:54:00;97026.63;;;9.72;100.00
54876;BME280;40764;48.472;8.166;2023-03-31T06:00:01;97028.94;;;9.87;100.00
54876;BME280;40764;48.472;8.166;2023-03-31T06:06:03;97063.94;;;10.03;100.00
54876;BME280;40764;48.472;8.166;2023-03-31T06:12:04;97078.53;;;9.89;100.00
54876;BME280;40764;48.472;8.166;2023-03-31T06:18:05;97106.06;;;10.19;100.00
54876;BME280;40764;48.472;8.166;2023-03-31T06:24:09;97186.53;;;10.70;100.00
54876;BME280;40764;48.472;8.166;2023-03-31T06:30:10;97161.91;;;10.70;100.00
54876;BME280;40764;48.472;8.166;2023-03-31T06:36:12;97145.34;;;10.58;99.04
54876;BME280;40764;48.472;8.166;2023-03-31T06:42:13;97101.13;;;10.47;100.00
54876;BME280;40764;48.472;8.166;2023-03-31T06:48:14;97102.09;;;10.51;99.88
54876;BME280;40764;48.472;8.166;2023-03-31T06:54:15;97100.97;;;10.61;100.00
54876;BME280;40764;48.472;8.166;2023-03-31T07:00:15;97113.53;;;10.70;100.00
54876;BME280;40764;48.472;8.166;2023-03-31T07:06:16;97118.19;;;10.78;100.00
54876;BME280;40764;48.472;8.166;2023-03-31T07:12:16;97112.69;;;10.87;100.00
54876;BME280;40764;48.472;8.166;2023-03-31T07:18:17;97117.66;;;10.94;100.00
54876;BME280;40764;48.472;8.166;2023-03-31T07:24:18;97106.25;;;11.09;100.00
54876;BME280;40764;48.472;8.166;2023-03-31T07:30:19;97093.97;;;11.24;100.00
54876;BME280;40764;48.472;8.166;2023-03-31T07:36:20;97088.31;;;11.37;100.00
54876;BME280;40764;48.472;8.166;2023-03-31T07:42:28;97075.19;;;11.52;96.51
54876;BME280;40764;48.472;8.166;2023-03-31T07:48:29;97081.38;;;11.87;97.27
54876;BME280;40764;48.472;8.166;2023-03-31T07:54:29;97075.50;;;11.97;97.15
54876;BME280;40764;48.472;8.166;2023-03-31T08:00:29;97061.22;;;12.33;95.41
54876;BME280;40764;48.472;8.166;2023-03-31T08:06:30;97065.78;;;12.50;92.54
54876;BME280;40764;48.472;8.166;2023-03-31T08:12:31;97073.69;;;12.51;92.22
54876;BME280;40764;48.472;8.166;2023-03-31T08:18:31;97090.16;;;12.22;93.97
54876;BME280;40764;48.472;8.166;2023-03-31T08:24:31;97071.03;;;12.13;91.98
54876;BME280;40764;48.472;8.166;2023-03-31T08:30:32;97068.09;;;12.39;88.71
54876;BME280;40764;48.472;8.166;2023-03-31T08:36:32;97055.75;;;12.33;86.27
54876;BME280;40764;48.472;8.166;2023-03-31T08:42:40;97072.88;;;12.30;87.32
54876;BME280;40764;48.472;8.166;2023-03-31T08:48:49;97073.94;;;12.58;85.75
54876;BME280;40764;48.472;8.166;2023-03-31T08:55:23;97066.06;;;12.90;83.14
54876;BME280;40764;48.472;8.166;2023-03-31T09:02:41;97059.63;;;13.07;82.17
54876;BME280;40764;48.472;8.166;2023-03-31T09:08:30;97039.34;;;13.32;83.04
54876;BME280;40764;48.472;8.166;2023-03-31T09:14:56;97020.50;;;13.30;81.83
54876;BME280;40764;48.472;8.166;2023-03-31T09:21:40;97022.31;;;13.39;80.38
54876;BME280;40764;48.472;8.166;2023-03-31T09:27:43;96992.44;;;13.86;79.81
54876;BME280;40764;48.472;8.166;2023-03-31T09:33:45;96974.50;;;14.29;75.81
54876;BME280;40764;48.472;8.166;2023-03-31T09:39:45;96966.09;;;13.85;74.60
54876;BME280;40764;48.472;8.166;2023-03-31T09:45:46;96963.16;;;13.90;75.48
54876;BME280;40764;48.472;8.166;2023-03-31T09:51:53;96952.63;;;13.80;72.82
54876;BME280;40764;48.472;8.166;2023-03-31T09:57:59;96958.66;;;13.98;67.35
54876;BME280;40764;48.472;8.166;2023-03-31T10:04:00;96954.28;;;14.09;67.00
54876;BME280;40764;48.472;8.166;2023-03-31T10:10:10;96930.41;;;13.85;66.01
54876;BME280;40764;48.472;8.166;2023-03-31T10:22:30;96895.53;;;13.73;64.51
54876;BME280;40764;48.472;8.166;2023-03-31T10:28:33;96890.56;;;13.39;66.55
54876;BME280;40764;48.472;8.166;2023-03-31T10:34:39;96949.66;;;13.12;67.77
54876;BME280;40764;48.472;8.166;2023-03-31T10:40:50;97127.19;;;10.53;94.39
54876;BME280;40764;48.472;8.166;2023-03-31T10:46:54;97151.88;;;9.82;87.14
54876;BME280;40764;48.472;8.166;2023-03-31T10:53:02;97170.59;;;9.67;87.17
54876;BME280;40764;48.472;8.166;2023-03-31T10:59:58;97141.47;;;9.53;88.00
54876;BME280;40764;48.472;8.166;2023-03-31T11:05:59;97076.75;;;9.37;88.46
54876;BME280;40764;48.472;8.166;2023-03-31T11:18:54;97049.91;;;9.78;84.26
54876;BME280;40764;48.472;8.166;2023-03-31T11:25:11;97027.00;;;9.97;86.40
54876;BME280;40764;48.472;8.166;2023-03-31T11:31:19;97021.38;;;9.93;90.97
54876;BME280;40764;48.472;8.166;2023-03-31T11:38:07;97039.75;;;10.36;93.34
54876;BME280;40764;48.472;8.166;2023-03-31T11:44:07;97060.75;;;10.87;93.22
54876;BME280;40764;48.472;8.166;2023-03-31T11:50:11;96998.84;;;10.82;93.73
54876;BME280;40764;48.472;8.166;2023-03-31T11:56:13;96976.59;;;11.39;91.88
54876;BME280;40764;48.472;8.166;2023-03-31T12:08:38;96947.59;;;12.18;85.79
54876;BME280;40764;48.472;8.166;2023-03-31T12:14:52;96935.38;;;11.95;89.40
54876;BME280;40764;48.472;8.166;2023-03-31T12:20:56;96917.03;;;12.28;86.47
54876;BME280;40764;48.472;8.166;2023-03-31T12:27:23;96894.63;;;11.93;88.45
54876;BME280;40764;48.472;8.166;2023-03-31T12:33:30;96889.03;;;11.39;92.71
54876;BME280;40764;48.472;8.166;2023-03-31T12:41:03;96869.28;;;11.34;93.93
54876;BME280;40764;48.472;8.166;2023-03-31T12:46:44;96898.75;;;11.58;92.71
54876;BME280;40764;48.472;8.166;2023-03-31T12:52:57;96921.81;;;11.18;92.14
54876;BME280;40764;48.472;8.166;2023-03-31T12:59:17;97057.91;;;10.23;100.00
54876;BME280;40764;48.472;8.166;2023-03-31T13:11:41;97009.50;;;8.92;96.30
54876;BME280;40764;48.472;8.166;2023-03-31T13:17:54;96938.63;;;9.32;94.14
54876;BME280;40764;48.472;8.166;2023-03-31T13:23:59;96948.22;;;10.76;92.65
54876;BME280;40764;48.472;8.166;2023-03-31T13:30:00;96948.09;;;10.64;94.04
54876;BME280;40764;48.472;8.166;2023-03-31T13:36:18;96924.56;;;9.99;94.68
54876;BME280;40764;48.472;8.166;2023-03-31T13:55:41;96928.91;;;10.81;95.60
54876;BME280;40764;48.472;8.166;2023-03-31T14:14:42;96878.06;;;12.56;89.95
54876;BME280;40764;48.472;8.166;2023-03-31T14:20:54;96876.31;;;12.06;89.55
54876;BME280;40764;48.472;8.166;2023-03-31T14:40:12;96889.47;;;11.71;90.23
54876;BME280;40764;48.472;8.166;2023-03-31T14:46:18;96880.25;;;11.96;89.90
54876;BME280;40764;48.472;8.166;2023-03-31T14:52:20;96870.72;;;11.61;89.22
54876;BME280;40764;48.472;8.166;2023-03-31T14:58:26;96862.22;;;11.54;89.75
54876;BME280;40764;48.472;8.166;2023-03-31T15:04:39;96851.94;;;11.51;90.06
54876;BME280;40764;48.472;8.166;2023-03-31T15:10:47;96854.06;;;11.45;89.89
54876;BME280;40764;48.472;8.166;2023-03-31T15:16:52;96836.84;;;11.24;89.90
54876;BME280;40764;48.472;8.166;2023-03-31T15:22:58;96829.69;;;11.10;88.06
54876;BME280;40764;48.472;8.166;2023-03-31T15:29:06;96797.31;;;10.92;88.22
54876;BME280;40764;48.472;8.166;2023-03-31T15:35:24;96799.06;;;10.67;90.08
54876;BME280;40764;48.472;8.166;2023-03-31T15:41:29;96921.72;;;10.68;90.84
54876;BME280;40764;48.472;8.166;2023-03-31T15:48:01;96979.69;;;7.98;100.00
54876;BME280;40764;48.472;8.166;2023-03-31T15:54:02;96870.06;;;7.53;98.81
54876;BME280;40764;48.472;8.166;2023-03-31T16:00:03;96849.53;;;7.91;96.39
54876;BME280;40764;48.472;8.166;2023-03-31T16:06:18;96874.31;;;8.12;97.17
54876;BME280;40764;48.472;8.166;2023-03-31T16:12:26;96873.25;;;8.22;99.15
54876;BME280;40764;48.472;8.166;2023-03-31T16:18:36;96844.41;;;8.21;99.78
54876;BME280;40764;48.472;8.166;2023-03-31T16:24:39;96816.56;;;8.63;100.00
54876;BME280;40764;48.472;8.166;2023-03-31T16:30:42;96817.91;;;8.83;99.33
54876;BME280;40764;48.472;8.166;2023-03-31T16:36:43;96818.06;;;8.69;100.00
54876;BME280;40764;48.472;8.166;2023-03-31T16:42:43;96842.34;;;8.57;100.00
54876;BME280;40764;48.472;8.166;2023-03-31T16:48:43;96858.47;;;8.76;100.00
54876;BME280;40764;48.472;8.166;2023-03-31T16:54:44;96860.22;;;8.72;100.00
54876;BME280;40764;48.472;8.166;2023-03-31T17:00:45;96859.75;;;8.87;100.00
54876;BME280;40764;48.472;8.166;2023-03-31T17:06:46;96859.84;;;9.39;100.00
54876;BME280;40764;48.472;8.166;2023-03-31T17:12:51;96861.97;;;9.59;100.00
54876;BME280;40764;48.472;8.166;2023-03-31T17:18:52;96855.53;;;9.64;100.00
54876;BME280;40764;48.472;8.166;2023-03-31T17:24:52;96863.22;;;9.71;100.00
54876;BME280;40764;48.472;8.166;2023-03-31T17:30:57;96871.25;;;9.76;100.00
54876;BME280;40764;48.472;8.166;2023-03-31T17:36:58;96868.69;;;9.88;100.00
54876;BME280;40764;48.472;8.166;2023-03-31T17:42:59;96867.22;;;9.82;100.00
54876;BME280;40764;48.472;8.166;2023-03-31T17:49:07;96855.34;;;9.78;99.26
54876;BME280;40764;48.472;8.166;2023-03-31T17:55:27;96878.16;;;9.65;100.00
54876;BME280;40764;48.472;8.166;2023-03-31T18:01:28;96881.38;;;9.67;99.47
54876;BME280;40764;48.472;8.166;2023-03-31T18:07:28;96883.78;;;9.68;98.63
54876;BME280;40764;48.472;8.166;2023-03-31T18:13:32;96893.88;;;9.76;95.63
54876;BME280;40764;48.472;8.166;2023-03-31T18:19:33;96896.44;;;10.07;92.72
54876;BME280;40764;48.472;8.166;2023-03-31T18:25:34;96898.84;;;10.09;92.92
54876;BME280;40764;48.472;8.166;2023-03-31T18:31:34;96901.91;;;10.16;92.65
54876;BME280;40764;48.472;8.166;2023-03-31T18:37:35;96897.88;;;10.05;94.46
54876;BME280;40764;48.472;8.166;2023-03-31T18:43:35;96896.78;;;9.80;96.78
54876;BME280;40764;48.472;8.166;2023-03-31T18:49:36;96889.72;;;9.96;94.97
54876;BME280;40764;48.472;8.166;2023-03-31T18:55:36;96889.69;;;10.05;93.37
54876;BME280;40764;48.472;8.166;2023-03-31T19:01:36;96872.41;;;9.83;95.96
54876;BME280;40764;48.472;8.166;2023-03-31T19:07:39;96903.50;;;9.82;96.72
54876;BME280;40764;48.472;8.166;2023-03-31T19:13:40;96903.69;;;9.94;95.28
54876;BME280;40764;48.472;8.166;2023-03-31T19:19:41;96901.59;;;9.91;94.29
54876;BME280;40764;48.472;8.166;2023-03-31T19:25:42;96928.41;;;10.15;93.58
54876;BME280;40764;48.472;8.166;2023-03-31T19:31:43;96934.69;;;10.24;91.83
54876;BME280;40764;48.472;8.166;2023-03-31T19:37:46;96943.03;;;10.28;91.46
54876;BME280;40764;48.472;8.166;2023-03-31T19:43:47;96961.63;;;9.83;95.70
54876;BME280;40764;48.472;8.166;2023-03-31T19:50:01;96955.56;;;9.86;94.19
54876;BME280;40764;48.472;8.166;2023-03-31T19:56:07;96947.38;;;9.86;93.55
54876;BME280;40764;48.472;8.166;2023-03-31T20:02:11;96953.28;;;9.79;94.43
54876;BME280;40764;48.472;8.166;2023-03-31T20:08:13;96956.50;;;9.99;93.28
54876;BME280;40764;48.472;8.166;2023-03-31T20:14:13;96955.38;;;9.74;95.26
54876;BME280;40764;48.472;8.166;2023-03-31T20:20:14;96961.63;;;9.74;94.75
54876;BME280;40764;48.472;8.166;2023-03-31T20:26:17;96965.81;;;9.80;95.11
54876;BME280;40764;48.472;8.166;2023-03-31T20:32:18;96962.59;;;9.61;94.73
54876;BME280;40764;48.472;8.166;2023-03-31T20:38:18;96972.22;;;9.58;94.06
54876;BME280;40764;48.472;8.166;2023-03-31T20:44:31;96969.31;;;9.55;92.93
54876;BME280;40764;48.472;8.166;2023-03-31T20:57:50;96977.34;;;9.60;93.05
54876;BME280;40764;48.472;8.166;2023-03-31T21:03:57;97002.66;;;9.43;92.84
54876;BME280;40764;48.472;8.166;2023-03-31T21:10:27;96977.50;;;9.55;92.35
54876;BME280;40764;48.472;8.166;2023-03-31T21:16:28;96985.06;;;9.58;92.11
54876;BME280;40764;48.472;8.166;2023-03-31T21:22:51;96977.66;;;9.58;91.70
54876;BME280;40764;48.472;8.166;2023-03-31T21:28:52;96990.78;;;9.48;93.56
54876;BME280;40764;48.472;8.166;2023-03-31T21:35:07;96983.41;;;9.40;95.65
54876;BME280;40764;48.472;8.166;2023-03-31T21:41:14;96985.38;;;9.56;95.73
54876;BME280;40764;48.472;8.166;2023-03-31T21:47:14;97004.47;;;9.17;97.54
54876;BME280;40764;48.472;8.166;2023-03-31T21:53:15;96996.34;;;9.25;98.06
54876;BME280;40764;48.472;8.166;2023-03-31T21:59:15;96998.06;;;9.13;97.92
54876;BME280;40764;48.472;8.166;2023-03-31T22:05:16;96986.69;;;9.19;96.39
54876;BME280;40764;48.472;8.166;2023-03-31T22:11:16;96989.28;;;9.24;95.68
54876;BME280;40764;48.472;8.166;2023-03-31T22:17:17;96990.91;;;9.25;93.73
54876;BME280;40764;48.472;8.166;2023-03-31T22:23:18;97000.31;;;9.19;94.21
54876;BME280;40764;48.472;8.166;2023-03-31T22:29:20;96987.06;;;9.26;94.70
54876;BME280;40764;48.472;8.166;2023-03-31T22:35:21;97003.09;;;9.28;95.50
54876;BME280;40764;48.472;8.166;2023-03-31T22:41:22;96990.53;;;9.18;95.62
54876;BME280;40764;48.472;8.166;2023-03-31T22:47:22;96998.38;;;9.11;96.14
54876;BME280;40764;48.472;8.166;2023-03-31T22:53:22;97008.06;;;9.26;96.23
54876;BME280;40764;48.472;8.166;2023-03-31T22:59:23;96993.34;;;9.36;94.29
54876;BME280;40764;48.472;8.166;2023-03-31T23:05:23;96995.09;;;9.40;94.47
54876;BME280;40764;48.472;8.166;2023-03-31T23:11:24;96995.44;;;9.39;95.03
54876;BME280;40764;48.472;8.166;2023-03-31T23:17:25;96982.75;;;9.43;92.09
54876;BME280;40764;48.472;8.166;2023-03-31T23:23:25;96986.59;;;9.42;92.18
54876;BME280;40764;48.472;8.166;2023-03-31T23:29:25;96997.50;;;9.42;93.23
54876;BME280;40764;48.472;8.166;2023-03-31T23:35:26;97005.38;;;9.35;94.60
54876;BME280;40764;48.472;8.166;2023-03-31T23:41:28;97005.34;;;9.26;95.09
54876;BME280;40764;48.472;8.166;2023-03-31T23:47:29;97012.78;;;9.51;93.24
54876;BME280;40764;48.472;8.166;2023-03-31T23:53:29;97013.56;;;9.52;92.66
54876;BME280;40764;48.472;8.166;2023-03-31T23:59:30;97017.63;;;9.63;92.01
